sensor_id;sensor_type;location;lat;lon;timestamp;P1;durP1;ratioP1;P2;durP2;ratioP2
11837;SDS011;5978;51.020;6.764;2023-05-27T00:01:49;14.60;;;6.10;;
11837;SDS011;5978;51.020;6.764;2023-05-27T00:04:15;20.03;;;5.70;;
11837;SDS011;5978;51.020;6.764;2023-05-27T00:06:41;13.90;;;5.23;;
11837;SDS011;5978;51.020;6.764;2023-05-27T00:09:06;12.33;;;5.50;;
11837;SDS011;5978;51.020;6.764;2023-05-27T00:11:32;13.83;;;4.23;;
11837;SDS011;5978;51.020;6.764;2023-05-27T00:13:58;13.63;;;5.40;;
11837;SDS011;5978;51.020;6.764;2023-05-27T00:16:24;9.33;;;5.20;;
11837;SDS011;5978;51.020;6.764;2023-05-27T00:18:50;11.03;;;4.80;;
11837;SDS011;5978;51.020;6.764;2023-05-27T00:21:16;11.83;;;5.83;;
11837;SDS011;5978;51.020;6.764;2023-05-27T00:23:44;15.50;;;5.37;;
11837;SDS011;5978;51.020;6.764;2023-05-27T00:26:10;13.43;;;5.40;;
11837;SDS011;5978;51.020;6.764;2023-05-27T00:28:36;18.47;;;6.00;;
11837;SDS011;5978;51.020;6.764;2023-05-27T00:31:02;6.90;;;4.63;;
11837;SDS011;5978;51.020;6.764;2023-05-27T00:33:28;13.07;;;6.10;;
11837;SDS011;5978;51.020;6.764;2023-05-27T00:35:54;17.87;;;5.07;;
11837;SDS011;5978;51.020;6.764;2023-05-27T00:38:20;10.20;;;5.10;;
11837;SDS011;5978;51.020;6.764;2023-05-27T00:40:45;15.00;;;5.80;;
11837;SDS011;5978;51.020;6.764;2023-05-27T00:43:12;20.63;;;6.03;;
11837;SDS011;5978;51.020;6.764;2023-05-27T00:45:37;14.90;;;4.97;;
11837;SDS011;5978;51.020;6.764;2023-05-27T00:48:03;11.73;;;6.57;;
11837;SDS011;5978;51.020;6.764;2023-05-27T00:50:30;14.33;;;4.97;;
11837;SDS011;5978;51.020;6.764;2023-05-27T00:52:56;16.10;;;6.00;;
11837;SDS011;5978;51.020;6.764;2023-05-27T00:55:23;12.90;;;5.50;;
11837;SDS011;5978;51.020;6.764;2023-05-27T00:57:49;12.00;;;5.43;;
11837;SDS011;5978;51.020;6.764;2023-05-27T01:00:15;16.13;;;5.47;;
11837;SDS011;5978;51.020;6.764;2023-05-27T01:02:41;17.80;;;5.93;;
11837;SDS011;5978;51.020;6.764;2023-05-27T01:05:08;20.60;;;6.77;;
11837;SDS011;5978;51.020;6.764;2023-05-27T01:10:34;19.53;;;5.10;;
11837;SDS011;5978;51.020;6.764;2023-05-27T01:13:01;12.30;;;5.97;;
11837;SDS011;5978;51.020;6.764;2023-05-27T01:15:34;15.90;;;6.33;;
11837;SDS011;5978;51.020;6.764;2023-05-27T01:18:01;12.10;;;5.27;;
11837;SDS011;5978;51.020;6.764;2023-05-27T01:20:28;13.50;;;5.90;;
11837;SDS011;5978;51.020;6.764;2023-05-27T01:22:55;8.90;;;5.10;;
11837;SDS011;5978;51.020;6.764;2023-05-27T01:25:24;20.87;;;6.03;;
11837;SDS011;5978;51.020;6.764;2023-05-27T01:27:50;11.13;;;5.70;;
11837;SDS011;5978;51.020;6.764;2023-05-27T01:30:18;11.80;;;6.37;;
11837;SDS011;5978;51.020;6.764;2023-05-27T01:35:31;12.90;;;5.63;;
11837;SDS011;5978;51.020;6.764;2023-05-27T01:38:04;12.53;;;6.13;;
11837;SDS011;5978;51.020;6.764;2023-05-27T01:40:37;19.40;;;6.50;;
11837;SDS011;5978;51.020;6.764;2023-05-27T01:43:05;14.10;;;5.37;;
11837;SDS011;5978;51.020;6.764;2023-05-27T01:45:31;11.97;;;5.77;;
11837;SDS011;5978;51.020;6.764;2023-05-27T01:47:58;17.33;;;6.00;;
11837;SDS011;5978;51.020;6.764;2023-05-27T01:50:24;13.00;;;5.63;;
11837;SDS011;5978;51.020;6.764;2023-05-27T01:52:49;9.63;;;4.77;;
11837;SDS011;5978;51.020;6.764;2023-05-27T01:55:15;12.63;;;6.27;;
11837;SDS011;5978;51.020;6.764;2023-05-27T01:57:42;13.00;;;6.10;;
11837;SDS011;5978;51.020;6.764;2023-05-27T02:00:08;14.03;;;5.60;;
11837;SDS011;5978;51.020;6.764;2023-05-27T02:02:34;23.03;;;7.93;;
11837;SDS011;5978;51.020;6.764;2023-05-27T02:05:00;16.87;;;6.53;;
11837;SDS011;5978;51.020;6.764;2023-05-27T02:07:26;23.73;;;6.70;;
11837;SDS011;5978;51.020;6.764;2023-05-27T02:09:53;13.30;;;6.60;;
11837;SDS011;5978;51.020;6.764;2023-05-27T02:12:18;15.67;;;6.13;;
11837;SDS011;5978;51.020;6.764;2023-05-27T02:14:45;15.53;;;6.37;;
11837;SDS011;5978;51.020;6.764;2023-05-27T02:17:11;10.73;;;5.07;;
11837;SDS011;5978;51.020;6.764;2023-05-27T02:19:40;18.23;;;6.07;;
11837;SDS011;5978;51.020;6.764;2023-05-27T02:22:06;10.83;;;5.20;;
11837;SDS011;5978;51.020;6.764;2023-05-27T02:24:32;14.90;;;5.83;;
11837;SDS011;5978;51.020;6.764;2023-05-27T02:26:58;14.33;;;6.00;;
11837;SDS011;5978;51.020;6.764;2023-05-27T02:29:23;14.30;;;6.63;;
11837;SDS011;5978;51.020;6.764;2023-05-27T02:31:49;14.30;;;5.93;;
11837;SDS011;5978;51.020;6.764;2023-05-27T02:34:15;15.40;;;5.97;;
11837;SDS011;5978;51.020;6.764;2023-05-27T02:36:41;14.30;;;5.90;;
11837;SDS011;5978;51.020;6.764;2023-05-27T02:39:08;12.23;;;6.10;;
11837;SDS011;5978;51.020;6.764;2023-05-27T02:41:34;16.20;;;6.60;;
11837;SDS011;5978;51.020;6.764;2023-05-27T02:44:00;13.70;;;5.07;;
11837;SDS011;5978;51.020;6.764;2023-05-27T02:46:25;15.47;;;6.97;;
11837;SDS011;5978;51.020;6.764;2023-05-27T02:48:51;15.43;;;6.17;;
11837;SDS011;5978;51.020;6.764;2023-05-27T02:51:16;15.07;;;6.43;;
11837;SDS011;5978;51.020;6.764;2023-05-27T02:53:42;8.57;;;4.90;;
11837;SDS011;5978;51.020;6.764;2023-05-27T02:56:08;19.67;;;6.70;;
11837;SDS011;5978;51.020;6.764;2023-05-27T02:58:33;12.73;;;6.20;;
11837;SDS011;5978;51.020;6.764;2023-05-27T03:00:59;11.00;;;6.17;;
11837;SDS011;5978;51.020;6.764;2023-05-27T03:03:25;12.33;;;6.00;;
11837;SDS011;5978;51.020;6.764;2023-05-27T03:05:51;11.83;;;6.20;;
11837;SDS011;5978;51.020;6.764;2023-05-27T03:08:17;14.67;;;6.50;;
11837;SDS011;5978;51.020;6.764;2023-05-27T03:10:42;15.13;;;5.70;;
11837;SDS011;5978;51.020;6.764;2023-05-27T03:13:08;16.70;;;6.00;;
11837;SDS011;5978;51.020;6.764;2023-05-27T03:15:34;12.13;;;5.50;;
11837;SDS011;5978;51.020;6.764;2023-05-27T03:18:00;23.80;;;6.67;;
11837;SDS011;5978;51.020;6.764;2023-05-27T03:20:28;17.00;;;6.47;;
11837;SDS011;5978;51.020;6.764;2023-05-27T03:22:54;13.77;;;5.80;;
11837;SDS011;5978;51.020;6.764;2023-05-27T03:25:20;10.13;;;4.97;;
11837;SDS011;5978;51.020;6.764;2023-05-27T03:27:45;9.90;;;5.70;;
11837;SDS011;5978;51.020;6.764;2023-05-27T03:30:11;14.17;;;5.93;;
11837;SDS011;5978;51.020;6.764;2023-05-27T03:32:37;16.07;;;6.17;;
11837;SDS011;5978;51.020;6.764;2023-05-27T03:35:03;14.63;;;5.93;;
11837;SDS011;5978;51.020;6.764;2023-05-27T03:37:29;19.20;;;6.93;;
11837;SDS011;5978;51.020;6.764;2023-05-27T03:39:55;13.70;;;5.97;;
11837;SDS011;5978;51.020;6.764;2023-05-27T03:42:20;18.80;;;5.67;;
11837;SDS011;5978;51.020;6.764;2023-05-27T03:44:46;15.00;;;6.37;;
11837;SDS011;5978;51.020;6.764;2023-05-27T03:47:12;17.23;;;5.70;;
11837;SDS011;5978;51.020;6.764;2023-05-27T03:49:38;20.43;;;6.97;;
11837;SDS011;5978;51.020;6.764;2023-05-27T03:52:03;13.10;;;6.97;;
11837;SDS011;5978;51.020;6.764;2023-05-27T03:54:30;13.50;;;6.60;;
11837;SDS011;5978;51.020;6.764;2023-05-27T03:56:55;13.47;;;5.90;;
11837;SDS011;5978;51.020;6.764;2023-05-27T03:59:21;13.87;;;6.00;;
11837;SDS011;5978;51.020;6.764;2023-05-27T04:01:47;14.60;;;5.70;;
11837;SDS011;5978;51.020;6.764;2023-05-27T04:04:12;10.00;;;5.73;;
11837;SDS011;5978;51.020;6.764;2023-05-27T04:06:38;21.23;;;6.80;;
11837;SDS011;5978;51.020;6.764;2023-05-27T04:09:06;10.63;;;5.43;;
11837;SDS011;5978;51.020;6.764;2023-05-27T04:11:32;14.33;;;6.10;;
11837;SDS011;5978;51.020;6.764;2023-05-27T04:13:57;23.40;;;6.90;;
11837;SDS011;5978;51.020;6.764;2023-05-27T04:16:23;18.43;;;6.63;;
11837;SDS011;5978;51.020;6.764;2023-05-27T04:18:49;15.33;;;6.03;;
11837;SDS011;5978;51.020;6.764;2023-05-27T04:21:16;26.77;;;6.63;;
11837;SDS011;5978;51.020;6.764;2023-05-27T04:23:42;11.63;;;6.47;;
11837;SDS011;5978;51.020;6.764;2023-05-27T04:26:08;16.73;;;6.50;;
11837;SDS011;5978;51.020;6.764;2023-05-27T04:28:34;10.97;;;6.40;;
11837;SDS011;5978;51.020;6.764;2023-05-27T04:31:00;16.80;;;6.90;;
11837;SDS011;5978;51.020;6.764;2023-05-27T04:33:26;21.87;;;6.47;;
11837;SDS011;5978;51.020;6.764;2023-05-27T04:35:52;14.60;;;6.23;;
11837;SDS011;5978;51.020;6.764;2023-05-27T04:38:19;17.63;;;6.67;;
11837;SDS011;5978;51.020;6.764;2023-05-27T04:40:46;22.33;;;7.07;;
11837;SDS011;5978;51.020;6.764;2023-05-27T04:43:18;12.90;;;6.00;;
11837;SDS011;5978;51.020;6.764;2023-05-27T04:45:44;12.30;;;6.00;;
11837;SDS011;5978;51.020;6.764;2023-05-27T04:48:11;14.90;;;6.70;;
11837;SDS011;5978;51.020;6.764;2023-05-27T04:50:36;18.10;;;7.40;;
11837;SDS011;5978;51.020;6.764;2023-05-27T04:53:02;22.93;;;6.97;;
11837;SDS011;5978;51.020;6.764;2023-05-27T04:55:28;15.00;;;5.80;;
11837;SDS011;5978;51.020;6.764;2023-05-27T04:57:55;17.00;;;7.27;;
11837;SDS011;5978;51.020;6.764;2023-05-27T05:00:22;19.93;;;6.00;;
11837;SDS011;5978;51.020;6.764;2023-05-27T05:03:05;18.20;;;6.07;;
11837;SDS011;5978;51.020;6.764;2023-05-27T05:05:32;11.17;;;6.13;;
11837;SDS011;5978;51.020;6.764;2023-05-27T05:07:58;20.27;;;6.90;;
11837;SDS011;5978;51.020;6.764;2023-05-27T05:10:23;19.17;;;7.50;;
11837;SDS011;5978;51.020;6.764;2023-05-27T05:12:49;16.00;;;6.77;;
11837;SDS011;5978;51.020;6.764;2023-05-27T05:15:15;15.70;;;6.17;;
11837;SDS011;5978;51.020;6.764;2023-05-27T05:17:41;11.40;;;6.07;;
11837;SDS011;5978;51.020;6.764;2023-05-27T05:20:07;16.50;;;6.40;;
11837;SDS011;5978;51.020;6.764;2023-05-27T05:22:34;30.50;;;7.73;;
11837;SDS011;5978;51.020;6.764;2023-05-27T05:24:59;14.10;;;7.53;;
11837;SDS011;5978;51.020;6.764;2023-05-27T05:27:26;16.10;;;6.77;;
11837;SDS011;5978;51.020;6.764;2023-05-27T05:29:52;18.67;;;6.90;;
11837;SDS011;5978;51.020;6.764;2023-05-27T05:32:18;13.30;;;6.40;;
11837;SDS011;5978;51.020;6.764;2023-05-27T05:34:44;16.40;;;6.57;;
11837;SDS011;5978;51.020;6.764;2023-05-27T05:37:10;19.00;;;8.97;;
11837;SDS011;5978;51.020;6.764;2023-05-27T05:39:36;14.80;;;6.07;;
11837;SDS011;5978;51.020;6.764;2023-05-27T05:42:02;13.33;;;6.00;;
11837;SDS011;5978;51.020;6.764;2023-05-27T05:44:28;15.23;;;7.40;;
11837;SDS011;5978;51.020;6.764;2023-05-27T05:46:54;17.43;;;6.93;;
11837;SDS011;5978;51.020;6.764;2023-05-27T05:49:20;16.00;;;5.83;;
11837;SDS011;5978;51.020;6.764;2023-05-27T05:51:46;11.50;;;7.20;;
11837;SDS011;5978;51.020;6.764;2023-05-27T05:54:11;16.07;;;7.33;;
11837;SDS011;5978;51.020;6.764;2023-05-27T05:56:37;17.13;;;7.67;;
11837;SDS011;5978;51.020;6.764;2023-05-27T05:59:03;16.70;;;6.40;;
11837;SDS011;5978;51.020;6.764;2023-05-27T06:01:28;17.27;;;7.00;;
11837;SDS011;5978;51.020;6.764;2023-05-27T06:03:54;14.50;;;7.33;;
11837;SDS011;5978;51.020;6.764;2023-05-27T06:06:21;22.73;;;8.00;;
11837;SDS011;5978;51.020;6.764;2023-05-27T06:08:47;11.67;;;6.90;;
11837;SDS011;5978;51.020;6.764;2023-05-27T06:11:13;21.43;;;7.20;;
11837;SDS011;5978;51.020;6.764;2023-05-27T06:13:39;15.50;;;6.90;;
11837;SDS011;5978;51.020;6.764;2023-05-27T06:16:05;22.43;;;7.67;;
11837;SDS011;5978;51.020;6.764;2023-05-27T06:18:30;15.87;;;6.77;;
11837;SDS011;5978;51.020;6.764;2023-05-27T06:20:56;12.33;;;6.53;;
11837;SDS011;5978;51.020;6.764;2023-05-27T06:23:22;13.90;;;6.73;;
11837;SDS011;5978;51.020;6.764;2023-05-27T06:25:47;16.10;;;6.20;;
11837;SDS011;5978;51.020;6.764;2023-05-27T06:28:13;22.90;;;7.60;;
11837;SDS011;5978;51.020;6.764;2023-05-27T06:30:39;15.27;;;7.30;;
11837;SDS011;5978;51.020;6.764;2023-05-27T06:33:05;15.93;;;7.00;;
11837;SDS011;5978;51.020;6.764;2023-05-27T06:35:31;16.67;;;6.70;;
11837;SDS011;5978;51.020;6.764;2023-05-27T06:37:58;13.60;;;7.30;;
11837;SDS011;5978;51.020;6.764;2023-05-27T06:40:24;13.43;;;6.93;;
11837;SDS011;5978;51.020;6.764;2023-05-27T06:42:50;22.27;;;7.10;;
11837;SDS011;5978;51.020;6.764;2023-05-27T06:45:15;14.57;;;7.53;;
11837;SDS011;5978;51.020;6.764;2023-05-27T06:47:41;17.00;;;6.77;;
11837;SDS011;5978;51.020;6.764;2023-05-27T06:50:07;14.43;;;6.20;;
11837;SDS011;5978;51.020;6.764;2023-05-27T06:52:33;15.13;;;7.50;;
11837;SDS011;5978;51.020;6.764;2023-05-27T06:54:58;15.03;;;6.13;;
11837;SDS011;5978;51.020;6.764;2023-05-27T06:57:24;13.50;;;6.00;;
11837;SDS011;5978;51.020;6.764;2023-05-27T06:59:50;20.23;;;7.47;;
11837;SDS011;5978;51.020;6.764;2023-05-27T07:02:15;12.27;;;7.00;;
11837;SDS011;5978;51.020;6.764;2023-05-27T07:04:41;19.43;;;6.53;;
11837;SDS011;5978;51.020;6.764;2023-05-27T07:07:07;19.60;;;7.23;;
11837;SDS011;5978;51.020;6.764;2023-05-27T07:09:33;15.07;;;7.40;;
11837;SDS011;5978;51.020;6.764;2023-05-27T07:11:59;17.37;;;7.83;;
11837;SDS011;5978;51.020;6.764;2023-05-27T07:14:26;13.80;;;6.60;;
11837;SDS011;5978;51.020;6.764;2023-05-27T07:16:51;13.03;;;7.10;;
11837;SDS011;5978;51.020;6.764;2023-05-27T07:19:17;10.47;;;5.90;;
11837;SDS011;5978;51.020;6.764;2023-05-27T07:21:43;16.10;;;6.10;;
11837;SDS011;5978;51.020;6.764;2023-05-27T07:24:08;13.90;;;6.63;;
11837;SDS011;5978;51.020;6.764;2023-05-27T07:26:35;14.00;;;6.20;;
11837;SDS011;5978;51.020;6.764;2023-05-27T07:29:01;14.17;;;7.33;;
11837;SDS011;5978;51.020;6.764;2023-05-27T07:31:28;13.00;;;6.57;;
11837;SDS011;5978;51.020;6.764;2023-05-27T07:33:54;18.40;;;5.80;;
11837;SDS011;5978;51.020;6.764;2023-05-27T07:36:20;9.50;;;5.33;;
11837;SDS011;5978;51.020;6.764;2023-05-27T07:38:45;15.80;;;5.47;;
11837;SDS011;5978;51.020;6.764;2023-05-27T07:41:11;13.27;;;5.80;;
11837;SDS011;5978;51.020;6.764;2023-05-27T07:43:38;14.60;;;5.93;;
11837;SDS011;5978;51.020;6.764;2023-05-27T07:46:03;15.60;;;6.20;;
11837;SDS011;5978;51.020;6.764;2023-05-27T07:48:29;10.93;;;5.73;;
11837;SDS011;5978;51.020;6.764;2023-05-27T07:50:55;13.00;;;5.43;;
11837;SDS011;5978;51.020;6.764;2023-05-27T07:53:21;9.40;;;5.57;;
11837;SDS011;5978;51.020;6.764;2023-05-27T07:55:46;9.77;;;5.27;;
11837;SDS011;5978;51.020;6.764;2023-05-27T07:58:12;15.23;;;6.03;;
11837;SDS011;5978;51.020;6.764;2023-05-27T08:00:38;16.83;;;6.73;;
11837;SDS011;5978;51.020;6.764;2023-05-27T08:03:03;13.30;;;6.53;;
11837;SDS011;5978;51.020;6.764;2023-05-27T08:05:29;15.97;;;6.50;;
11837;SDS011;5978;51.020;6.764;2023-05-27T08:07:55;12.33;;;5.53;;
11837;SDS011;5978;51.020;6.764;2023-05-27T08:10:20;14.70;;;5.97;;
11837;SDS011;5978;51.020;6.764;2023-05-27T08:12:46;12.27;;;4.87;;
11837;SDS011;5978;51.020;6.764;2023-05-27T08:15:12;8.63;;;5.60;;
11837;SDS011;5978;51.020;6.764;2023-05-27T08:17:38;12.70;;;4.97;;
11837;SDS011;5978;51.020;6.764;2023-05-27T08:20:05;13.87;;;5.67;;
11837;SDS011;5978;51.020;6.764;2023-05-27T08:22:31;11.60;;;5.53;;
11837;SDS011;5978;51.020;6.764;2023-05-27T08:24:57;17.40;;;5.97;;
11837;SDS011;5978;51.020;6.764;2023-05-27T08:27:41;14.70;;;5.67;;
11837;SDS011;5978;51.020;6.764;2023-05-27T08:30:09;9.30;;;4.50;;
11837;SDS011;5978;51.020;6.764;2023-05-27T08:32:39;13.20;;;6.43;;
11837;SDS011;5978;51.020;6.764;2023-05-27T08:35:05;10.30;;;4.63;;
11837;SDS011;5978;51.020;6.764;2023-05-27T08:37:31;14.17;;;5.53;;
11837;SDS011;5978;51.020;6.764;2023-05-27T08:39:57;8.83;;;4.90;;
11837;SDS011;5978;51.020;6.764;2023-05-27T08:42:23;10.00;;;5.73;;
11837;SDS011;5978;51.020;6.764;2023-05-27T08:44:52;11.73;;;5.17;;
11837;SDS011;5978;51.020;6.764;2023-05-27T08:47:18;13.43;;;5.93;;
11837;SDS011;5978;51.020;6.764;2023-05-27T08:49:44;11.93;;;5.67;;
11837;SDS011;5978;51.020;6.764;2023-05-27T08:52:10;11.30;;;5.00;;
11837;SDS011;5978;51.020;6.764;2023-05-27T08:54:39;12.80;;;5.67;;
11837;SDS011;5978;51.020;6.764;2023-05-27T08:57:07;14.27;;;5.70;;
11837;SDS011;5978;51.020;6.764;2023-05-27T08:59:37;10.60;;;5.33;;
11837;SDS011;5978;51.020;6.764;2023-05-27T09:02:05;9.20;;;5.13;;
11837;SDS011;5978;51.020;6.764;2023-05-27T09:04:41;17.37;;;6.33;;
11837;SDS011;5978;51.020;6.764;2023-05-27T09:07:07;14.07;;;6.37;;
11837;SDS011;5978;51.020;6.764;2023-05-27T09:09:33;13.77;;;6.30;;
11837;SDS011;5978;51.020;6.764;2023-05-27T09:12:01;7.53;;;5.33;;
11837;SDS011;5978;51.020;6.764;2023-05-27T09:14:28;13.87;;;5.90;;
11837;SDS011;5978;51.020;6.764;2023-05-27T09:16:55;15.80;;;6.07;;
11837;SDS011;5978;51.020;6.764;2023-05-27T09:19:21;10.70;;;5.80;;
11837;SDS011;5978;51.020;6.764;2023-05-27T09:21:47;13.13;;;5.90;;
11837;SDS011;5978;51.020;6.764;2023-05-27T09:24:16;13.10;;;5.70;;
11837;SDS011;5978;51.020;6.764;2023-05-27T09:26:42;14.13;;;5.90;;
11837;SDS011;5978;51.020;6.764;2023-05-27T09:29:08;9.53;;;5.90;;
11837;SDS011;5978;51.020;6.764;2023-05-27T09:31:40;10.00;;;5.30;;
11837;SDS011;5978;51.020;6.764;2023-05-27T09:34:10;15.03;;;6.30;;
11837;SDS011;5978;51.020;6.764;2023-05-27T09:36:44;11.63;;;5.73;;
11837;SDS011;5978;51.020;6.764;2023-05-27T09:39:11;11.07;;;5.20;;
11837;SDS011;5978;51.020;6.764;2023-05-27T09:41:38;16.03;;;5.77;;
11837;SDS011;5978;51.020;6.764;2023-05-27T09:44:05;12.60;;;5.27;;
11837;SDS011;5978;51.020;6.764;2023-05-27T09:46:33;9.90;;;5.43;;
11837;SDS011;5978;51.020;6.764;2023-05-27T09:49:01;6.37;;;4.87;;
11837;SDS011;5978;51.020;6.764;2023-05-27T09:51:28;8.67;;;5.03;;
11837;SDS011;5978;51.020;6.764;2023-05-27T09:53:55;13.60;;;5.50;;
11837;SDS011;5978;51.020;6.764;2023-05-27T09:56:22;7.60;;;5.00;;
11837;SDS011;5978;51.020;6.764;2023-05-27T09:58:51;15.60;;;5.07;;
11837;SDS011;5978;51.020;6.764;2023-05-27T10:01:19;15.53;;;6.27;;
11837;SDS011;5978;51.020;6.764;2023-05-27T10:03:45;15.27;;;5.20;;
11837;SDS011;5978;51.020;6.764;2023-05-27T10:06:14;12.23;;;6.00;;
11837;SDS011;5978;51.020;6.764;2023-05-27T10:08:43;13.20;;;4.80;;
11837;SDS011;5978;51.020;6.764;2023-05-27T10:11:10;13.47;;;5.50;;
11837;SDS011;5978;51.020;6.764;2023-05-27T10:13:36;12.13;;;5.53;;
11837;SDS011;5978;51.020;6.764;2023-05-27T10:16:03;9.20;;;5.00;;
11837;SDS011;5978;51.020;6.764;2023-05-27T10:18:29;19.13;;;5.50;;
11837;SDS011;5978;51.020;6.764;2023-05-27T10:20:58;8.80;;;5.50;;
11837;SDS011;5978;51.020;6.764;2023-05-27T10:26:10;14.07;;;5.13;;
11837;SDS011;5978;51.020;6.764;2023-05-27T10:28:36;13.00;;;5.20;;
11837;SDS011;5978;51.020;6.764;2023-05-27T10:31:07;14.10;;;5.10;;
11837;SDS011;5978;51.020;6.764;2023-05-27T10:33:34;12.60;;;6.70;;
11837;SDS011;5978;51.020;6.764;2023-05-27T10:36:07;13.33;;;5.30;;
11837;SDS011;5978;51.020;6.764;2023-05-27T10:38:43;10.33;;;5.07;;
11837;SDS011;5978;51.020;6.764;2023-05-27T10:41:42;8.43;;;4.90;;
11837;SDS011;5978;51.020;6.764;2023-05-27T10:44:13;10.30;;;4.93;;
11837;SDS011;5978;51.020;6.764;2023-05-27T10:46:50;11.40;;;4.40;;
11837;SDS011;5978;51.020;6.764;2023-05-27T10:49:25;17.97;;;5.60;;
11837;SDS011;5978;51.020;6.764;2023-05-27T10:52:18;15.80;;;5.17;;
11837;SDS011;5978;51.020;6.764;2023-05-27T10:54:51;10.77;;;5.07;;
11837;SDS011;5978;51.020;6.764;2023-05-27T10:57:19;12.43;;;5.13;;
11837;SDS011;5978;51.020;6.764;2023-05-27T11:02:17;9.73;;;4.63;;
11837;SDS011;5978;51.020;6.764;2023-05-27T11:04:44;7.70;;;4.30;;
11837;SDS011;5978;51.020;6.764;2023-05-27T11:07:10;16.00;;;6.83;;
11837;SDS011;5978;51.020;6.764;2023-05-27T11:09:45;14.13;;;5.40;;
11837;SDS011;5978;51.020;6.764;2023-05-27T11:12:14;11.07;;;5.60;;
11837;SDS011;5978;51.020;6.764;2023-05-27T11:14:41;13.20;;;5.47;;
11837;SDS011;5978;51.020;6.764;2023-05-27T11:17:11;15.10;;;5.20;;
11837;SDS011;5978;51.020;6.764;2023-05-27T11:19:40;9.60;;;5.30;;
11837;SDS011;5978;51.020;6.764;2023-05-27T11:22:10;8.90;;;4.60;;
11837;SDS011;5978;51.020;6.764;2023-05-27T11:24:36;8.17;;;4.77;;
11837;SDS011;5978;51.020;6.764;2023-05-27T11:27:08;9.03;;;4.17;;
11837;SDS011;5978;51.020;6.764;2023-05-27T11:29:38;11.03;;;4.80;;
11837;SDS011;5978;51.020;6.764;2023-05-27T11:32:05;10.50;;;4.67;;
11837;SDS011;5978;51.020;6.764;2023-05-27T11:34:34;10.50;;;5.60;;
11837;SDS011;5978;51.020;6.764;2023-05-27T11:37:04;14.53;;;5.10;;
11837;SDS011;5978;51.020;6.764;2023-05-27T11:39:30;13.83;;;6.27;;
11837;SDS011;5978;51.020;6.764;2023-05-27T11:41:57;8.30;;;5.30;;
11837;SDS011;5978;51.020;6.764;2023-05-27T11:44:23;17.00;;;5.23;;
11837;SDS011;5978;51.020;6.764;2023-05-27T11:46:51;15.90;;;5.13;;
11837;SDS011;5978;51.020;6.764;2023-05-27T11:49:22;11.27;;;5.27;;
11837;SDS011;5978;51.020;6.764;2023-05-27T11:51:49;12.73;;;5.77;;
11837;SDS011;5978;51.020;6.764;2023-05-27T11:56:44;14.27;;;5.50;;
11837;SDS011;5978;51.020;6.764;2023-05-27T11:59:10;16.37;;;6.20;;
11837;SDS011;5978;51.020;6.764;2023-05-27T12:01:36;11.40;;;6.93;;
11837;SDS011;5978;51.020;6.764;2023-05-27T12:04:01;10.30;;;5.63;;
11837;SDS011;5978;51.020;6.764;2023-05-27T12:06:28;15.13;;;6.67;;
11837;SDS011;5978;51.020;6.764;2023-05-27T12:08:54;14.03;;;6.10;;
11837;SDS011;5978;51.020;6.764;2023-05-27T12:11:20;14.90;;;6.50;;
11837;SDS011;5978;51.020;6.764;2023-05-27T12:13:47;6.43;;;4.30;;
11837;SDS011;5978;51.020;6.764;2023-05-27T12:16:12;10.70;;;4.73;;
11837;SDS011;5978;51.020;6.764;2023-05-27T12:18:38;10.30;;;4.97;;
11837;SDS011;5978;51.020;6.764;2023-05-27T12:21:06;8.60;;;4.73;;
11837;SDS011;5978;51.020;6.764;2023-05-27T12:23:32;10.33;;;5.00;;
11837;SDS011;5978;51.020;6.764;2023-05-27T12:25:58;7.03;;;4.33;;
11837;SDS011;5978;51.020;6.764;2023-05-27T12:28:25;10.80;;;5.23;;
11837;SDS011;5978;51.020;6.764;2023-05-27T12:30:51;6.73;;;4.10;;
11837;SDS011;5978;51.020;6.764;2023-05-27T12:33:17;8.67;;;4.73;;
11837;SDS011;5978;51.020;6.764;2023-05-27T12:35:42;7.90;;;4.47;;
11837;SDS011;5978;51.020;6.764;2023-05-27T12:38:08;7.70;;;4.47;;
11837;SDS011;5978;51.020;6.764;2023-05-27T12:40:34;9.13;;;4.40;;
11837;SDS011;5978;51.020;6.764;2023-05-27T12:43:00;11.90;;;5.70;;
11837;SDS011;5978;51.020;6.764;2023-05-27T12:45:28;6.10;;;4.07;;
11837;SDS011;5978;51.020;6.764;2023-05-27T12:47:54;9.50;;;4.27;;
11837;SDS011;5978;51.020;6.764;2023-05-27T12:50:20;7.87;;;4.27;;
11837;SDS011;5978;51.020;6.764;2023-05-27T12:52:47;11.60;;;4.00;;
11837;SDS011;5978;51.020;6.764;2023-05-27T12:55:15;7.90;;;4.70;;
11837;SDS011;5978;51.020;6.764;2023-05-27T12:57:42;10.40;;;4.60;;
11837;SDS011;5978;51.020;6.764;2023-05-27T13:00:09;8.50;;;4.73;;
11837;SDS011;5978;51.020;6.764;2023-05-27T13:02:36;8.97;;;4.17;;
11837;SDS011;5978;51.020;6.764;2023-05-27T13:05:02;6.00;;;3.80;;
11837;SDS011;5978;51.020;6.764;2023-05-27T13:07:28;6.40;;;3.90;;
11837;SDS011;5978;51.020;6.764;2023-05-27T13:09:54;6.87;;;3.73;;
11837;SDS011;5978;51.020;6.764;2023-05-27T13:12:21;13.33;;;4.50;;
11837;SDS011;5978;51.020;6.764;2023-05-27T13:14:47;9.60;;;4.60;;
11837;SDS011;5978;51.020;6.764;2023-05-27T13:17:13;8.30;;;4.20;;
11837;SDS011;5978;51.020;6.764;2023-05-27T13:19:39;8.80;;;4.20;;
11837;SDS011;5978;51.020;6.764;2023-05-27T13:22:05;12.47;;;5.43;;
11837;SDS011;5978;51.020;6.764;2023-05-27T13:24:31;9.83;;;4.67;;
11837;SDS011;5978;51.020;6.764;2023-05-27T13:26:56;4.63;;;4.17;;
11837;SDS011;5978;51.020;6.764;2023-05-27T13:29:22;14.50;;;5.10;;
11837;SDS011;5978;51.020;6.764;2023-05-27T13:31:48;11.87;;;4.87;;
11837;SDS011;5978;51.020;6.764;2023-05-27T13:34:15;7.60;;;4.20;;
11837;SDS011;5978;51.020;6.764;2023-05-27T13:36:42;8.67;;;4.57;;
11837;SDS011;5978;51.020;6.764;2023-05-27T13:39:07;7.87;;;5.23;;
11837;SDS011;5978;51.020;6.764;2023-05-27T13:41:33;7.90;;;4.87;;
11837;SDS011;5978;51.020;6.764;2023-05-27T13:43:59;9.00;;;4.40;;
11837;SDS011;5978;51.020;6.764;2023-05-27T13:46:24;9.87;;;4.40;;
11837;SDS011;5978;51.020;6.764;2023-05-27T13:48:50;6.93;;;4.53;;
11837;SDS011;5978;51.020;6.764;2023-05-27T13:51:16;8.63;;;4.47;;
11837;SDS011;5978;51.020;6.764;2023-05-27T13:53:41;6.07;;;4.00;;
11837;SDS011;5978;51.020;6.764;2023-05-27T13:56:07;7.30;;;4.83;;
11837;SDS011;5978;51.020;6.764;2023-05-27T13:58:33;8.40;;;4.90;;
11837;SDS011;5978;51.020;6.764;2023-05-27T14:00:59;8.20;;;5.10;;
11837;SDS011;5978;51.020;6.764;2023-05-27T14:03:24;8.40;;;4.60;;
11837;SDS011;5978;51.020;6.764;2023-05-27T14:05:50;10.13;;;5.20;;
11837;SDS011;5978;51.020;6.764;2023-05-27T14:08:16;13.20;;;4.80;;
11837;SDS011;5978;51.020;6.764;2023-05-27T14:10:42;6.77;;;4.73;;
11837;SDS011;5978;51.020;6.764;2023-05-27T14:13:08;7.90;;;4.60;;
11837;SDS011;5978;51.020;6.764;2023-05-27T14:15:33;9.83;;;4.20;;
11837;SDS011;5978;51.020;6.764;2023-05-27T14:17:59;9.83;;;4.43;;
11837;SDS011;5978;51.020;6.764;2023-05-27T14:20:30;7.73;;;4.07;;
11837;SDS011;5978;51.020;6.764;2023-05-27T14:22:56;7.03;;;5.40;;
11837;SDS011;5978;51.020;6.764;2023-05-27T14:25:24;8.30;;;5.10;;
11837;SDS011;5978;51.020;6.764;2023-05-27T14:27:49;8.60;;;4.70;;
11837;SDS011;5978;51.020;6.764;2023-05-27T14:30:15;6.37;;;4.80;;
11837;SDS011;5978;51.020;6.764;2023-05-27T14:32:41;10.70;;;4.97;;
11837;SDS011;5978;51.020;6.764;2023-05-27T14:35:07;10.63;;;5.10;;
11837;SDS011;5978;51.020;6.764;2023-05-27T14:37:33;6.97;;;4.40;;
11837;SDS011;5978;51.020;6.764;2023-05-27T14:39:59;8.23;;;5.83;;
11837;SDS011;5978;51.020;6.764;2023-05-27T14:42:25;9.47;;;5.60;;
11837;SDS011;5978;51.020;6.764;2023-05-27T14:44:51;9.83;;;5.10;;
11837;SDS011;5978;51.020;6.764;2023-05-27T14:47:16;8.20;;;4.70;;
11837;SDS011;5978;51.020;6.764;2023-05-27T14:49:43;5.57;;;5.00;;
11837;SDS011;5978;51.020;6.764;2023-05-27T14:52:09;10.27;;;5.10;;
11837;SDS011;5978;51.020;6.764;2023-05-27T14:54:34;8.87;;;5.10;;
11837;SDS011;5978;51.020;6.764;2023-05-27T14:57:00;6.13;;;4.50;;
11837;SDS011;5978;51.020;6.764;2023-05-27T14:59:26;6.40;;;5.03;;
11837;SDS011;5978;51.020;6.764;2023-05-27T15:01:51;8.87;;;5.10;;